createdAt,value
2023-03-02T00:03:25.030Z,51.00
2023-03-02T00:08:29.438Z,50.80
2023-03-02T00:13:36.142Z,50.50
2023-03-02T00:18:40.801Z,50.30
2023-03-02T00:23:45.460Z,50.10
2023-03-02T00:28:50.280Z,49.90
2023-03-02T00:33:56.862Z,49.80
2023-03-02T00:39:01.003Z,50.20
2023-03-02T00:44:05.322Z,50.80
2023-03-02T00:49:09.368Z,50.70
2023-03-02T00:54:13.611Z,50.40
2023-03-02T00:59:26.940Z,51.10
2023-03-02T01:04:49.216Z,51.30
2023-03-02T01:09:53.545Z,51.00
2023-03-02T01:14:57.782Z,51.00
2023-03-02T01:20:01.602Z,51.30
2023-03-02T01:25:06.123Z,51.00
2023-03-02T01:30:12.445Z,51.00
2023-03-02T01:35:16.525Z,50.90
2023-03-02T01:40:20.716Z,50.70
2023-03-02T01:46:04.706Z,51.50
2023-03-02T01:51:20.863Z,51.10
2023-03-02T01:56:30.090Z,50.90
2023-03-02T02:01:38.145Z,51.30
2023-03-02T02:06:48.208Z,50.90
2023-03-02T02:11:53.078Z,51.00
2023-03-02T02:16:57.059Z,50.60
2023-03-02T02:22:01.843Z,50.60
2023-03-02T02:27:06.184Z,50.50
2023-03-02T02:32:17.862Z,50.40
2023-03-02T02:37:30.527Z,50.40
2023-03-02T02:42:38.673Z,50.00
2023-03-02T02:47:44.005Z,49.90
2023-03-02T02:52:57.695Z,49.70
2023-03-02T02:58:10.392Z,49.50
2023-03-02T03:03:35.881Z,49.30
2023-03-02T03:08:42.404Z,49.90
2023-03-02T03:13:47.771Z,49.30
2023-03-02T03:18:52.844Z,49.20
2023-03-02T03:23:56.969Z,49.00
2023-03-02T03:29:01.728Z,49.10
2023-03-02T03:34:06.662Z,49.00
2023-03-02T03:39:13.254Z,48.90
2023-03-02T03:44:17.607Z,49.20
2023-03-02T03:49:22.247Z,49.50
2023-03-02T03:54:27.155Z,49.50
2023-03-02T03:59:31.198Z,49.80
2023-03-02T04:04:37.805Z,49.10
2023-03-02T04:09:48.690Z,49.10
2023-03-02T04:14:53.853Z,48.40
2023-03-02T04:19:59.112Z,48.70
2023-03-02T04:25:03.960Z,48.30
2023-03-02T04:30:09.426Z,48.30
2023-03-02T04:35:14.547Z,48.30
2023-03-02T04:40:18.735Z,48.40
2023-03-02T04:45:22.866Z,48.30
2023-03-02T04:50:27.212Z,48.20
2023-03-02T04:55:31.548Z,48.50
2023-03-02T05:00:35.790Z,48.70
2023-03-02T05:05:39.821Z,48.80
2023-03-02T05:10:43.865Z,49.10
2023-03-02T05:15:47.949Z,48.80
2023-03-02T05:20:53.485Z,48.80
2023-03-02T05:25:57.793Z,48.80
2023-03-02T05:31:02.807Z,48.90
2023-03-02T05:36:07.092Z,48.30
2023-03-02T05:41:11.413Z,48.00
2023-03-02T05:46:15.589Z,47.80
2023-03-02T05:51:19.591Z,47.70
2023-03-02T05:56:23.533Z,48.30
2023-03-02T06:01:27.674Z,47.80
2023-03-02T06:06:34.027Z,48.10
2023-03-02T06:11:38.166Z,48.30
2023-03-02T06:16:42.373Z,48.40
2023-03-02T06:21:46.452Z,48.30
2023-03-02T06:26:50.479Z,48.30
2023-03-02T06:31:54.874Z,48.30
2023-03-02T06:36:59.057Z,48.40
2023-03-02T06:42:03.202Z,48.80
2023-03-02T06:47:07.239Z,48.80
2023-03-02T06:52:14.029Z,48.60
2023-03-02T06:57:18.260Z,49.40
2023-03-02T07:02:24.768Z,49.20
2023-03-02T07:07:28.909Z,50.50
2023-03-02T07:12:33.537Z,50.60
2023-03-02T07:17:39.078Z,50.20
2023-03-02T07:22:44.301Z,50.00
2023-03-02T07:27:48.486Z,50.30
2023-03-02T07:32:54.481Z,50.20
2023-03-02T07:37:58.621Z,50.40
2023-03-02T07:43:02.733Z,50.30
2023-03-02T07:48:07.279Z,50.30
2023-03-02T07:53:11.404Z,50.20
2023-03-02T07:58:15.465Z,49.00
2023-03-02T08:03:19.681Z,49.00
2023-03-02T08:08:23.812Z,49.00
2023-03-02T08:13:27.950Z,48.80
2023-03-02T08:18:32.621Z,48.80
2023-03-02T08:23:36.864Z,48.90
2023-03-02T08:28:41.191Z,48.60
2023-03-02T08:33:46.661Z,48.40
2023-03-02T08:38:50.746Z,48.40
2023-03-02T08:43:56.452Z,48.30
2023-03-02T08:49:00.699Z,48.40
2023-03-02T08:54:04.903Z,48.40
2023-03-02T08:59:12.798Z,48.90
2023-03-02T09:04:17.215Z,48.30
2023-03-02T09:09:21.637Z,48.20
2023-03-02T09:14:26.064Z,48.10
2023-03-02T09:19:30.303Z,48.00
2023-03-02T09:24:34.833Z,48.00
2023-03-02T09:29:38.989Z,48.30
2023-03-02T09:34:43.130Z,47.90
2023-03-02T09:39:47.617Z,48.30
2023-03-02T09:45:15.752Z,48.00
2023-03-02T09:50:33.690Z,48.40
2023-03-02T09:55:39.069Z,48.10
2023-03-02T10:00:44.472Z,48.10
2023-03-02T10:05:51.292Z,48.10
2023-03-02T10:11:09.671Z,48.30
2023-03-02T10:16:25.510Z,49.00
2023-03-02T10:21:32.458Z,49.40
2023-03-02T10:26:39.262Z,49.60
2023-03-02T10:31:43.703Z,49.40
2023-03-02T10:36:48.038Z,49.30
2023-03-02T10:42:04.206Z,49.20
2023-03-02T10:47:08.868Z,49.30
2023-03-02T10:52:18.052Z,49.20
2023-03-02T10:57:31.387Z,48.60
2023-03-02T11:02:37.825Z,48.40
2023-03-02T11:07:55.251Z,48.70
2023-03-02T11:13:01.214Z,48.30
2023-03-02T11:18:23.456Z,48.40
2023-03-02T11:23:43.973Z,48.20
2023-03-02T11:29:00.186Z,48.00
2023-03-02T11:34:18.282Z,47.80
2023-03-02T11:39:32.707Z,47.80
2023-03-02T11:44:36.729Z,47.90
2023-03-02T11:50:00.114Z,47.80
2023-03-02T11:55:17.129Z,47.80
2023-03-02T12:00:30.376Z,47.10
2023-03-02T12:05:38.071Z,46.80
2023-03-02T12:10:45.949Z,46.90
2023-03-02T12:15:51.124Z,46.60
2023-03-02T12:21:11.999Z,46.70
2023-03-02T12:26:22.100Z,46.30
2023-03-02T12:31:27.995Z,46.50
2023-03-02T12:36:40.946Z,46.10
2023-03-02T12:42:04.364Z,46.20
2023-03-02T12:47:16.716Z,46.80
2023-03-02T12:52:29.127Z,46.30
2023-03-02T12:57:33.944Z,47.00
2023-03-02T13:02:37.742Z,46.70
2023-03-02T13:07:47.943Z,46.70
2023-03-02T13:12:52.193Z,46.90
2023-03-02T13:18:00.922Z,47.40
2023-03-02T13:23:04.933Z,47.50
2023-03-02T13:28:27.727Z,47.30
2023-03-02T13:33:34.187Z,47.70
2023-03-02T13:38:38.829Z,47.50
2023-03-02T13:43:42.670Z,47.70
2023-03-02T13:49:09.131Z,47.80
2023-03-02T13:54:28.112Z,47.70
2023-03-02T13:59:36.819Z,47.50
2023-03-02T14:04:40.732Z,47.40
2023-03-02T14:09:44.977Z,47.30
2023-03-02T14:14:49.060Z,47.30
2023-03-02T14:19:53.868Z,47.10
2023-03-02T14:24:58.078Z,47.30
2023-03-02T14:30:02.332Z,47.10
2023-03-02T14:35:08.832Z,46.70
2023-03-02T14:40:19.222Z,46.40
2023-03-02T14:45:23.543Z,46.70
2023-03-02T14:50:27.597Z,46.60
2023-03-02T14:55:32.954Z,46.30
2023-03-02T15:00:37.411Z,45.70
2023-03-02T15:05:51.717Z,46.40
2023-03-02T15:11:04.361Z,45.10
2023-03-02T15:16:12.594Z,46.10
2023-03-02T15:21:20.089Z,46.80
2023-03-02T15:26:23.956Z,47.50
2023-03-02T15:31:28.660Z,48.00
2023-03-02T15:36:32.634Z,47.90
2023-03-02T15:41:36.547Z,48.30
2023-03-02T15:46:40.542Z,47.80
2023-03-02T15:51:44.555Z,47.40
2023-03-02T15:56:55.316Z,47.80
2023-03-02T16:01:59.909Z,48.00
2023-03-02T16:07:04.510Z,48.20
2023-03-02T16:12:08.832Z,48.80
2023-03-02T16:17:12.875Z,48.70
2023-03-02T16:22:16.962Z,48.80
2023-03-02T16:27:21.152Z,48.90
2023-03-02T16:32:25.223Z,49.10
2023-03-02T16:37:29.574Z,49.10
2023-03-02T16:42:34.154Z,49.20
2023-03-02T16:47:38.214Z,48.90
2023-03-02T16:52:43.169Z,48.80
2023-03-02T16:57:47.580Z,48.70
2023-03-02T17:02:55.560Z,49.50
2023-03-02T17:08:03.081Z,51.70
2023-03-02T17:13:12.570Z,51.30
2023-03-02T17:18:19.045Z,50.90
2023-03-02T17:23:28.387Z,51.00
2023-03-02T17:28:36.664Z,50.10
2023-03-02T17:33:44.362Z,50.70
2023-03-02T17:38:51.121Z,49.90
2023-03-02T17:43:59.089Z,50.20
2023-03-02T17:49:06.251Z,49.80
2023-03-02T17:54:13.858Z,51.20
2023-03-02T17:59:20.332Z,52.10
2023-03-02T18:04:25.143Z,51.60
2023-03-02T18:09:30.188Z,51.10
2023-03-02T18:14:37.726Z,51.10
2023-03-02T18:19:42.345Z,50.70
2023-03-02T18:24:48.434Z,50.60
2023-03-02T18:29:55.431Z,50.30
2023-03-02T18:35:02.476Z,50.10
2023-03-02T18:40:09.211Z,49.80
2023-03-02T18:45:27.806Z,50.00
2023-03-02T18:50:33.824Z,49.50
2023-03-02T18:55:41.159Z,48.50
2023-03-02T19:00:47.436Z,48.00
2023-03-02T19:05:56.908Z,48.10
2023-03-02T19:11:04.042Z,48.50
2023-03-02T19:16:09.664Z,48.00
2023-03-02T19:21:14.834Z,47.30
2023-03-02T19:26:20.969Z,47.80
2023-03-02T19:31:29.897Z,48.00
2023-03-02T19:36:35.405Z,47.80
2023-03-02T19:41:42.269Z,47.50
2023-03-02T19:46:47.878Z,47.40
2023-03-02T19:51:54.714Z,47.50
2023-03-02T19:57:06.543Z,47.50
2023-03-02T20:02:15.352Z,47.70
2023-03-02T20:07:22.001Z,47.90
2023-03-02T20:12:30.970Z,48.10
2023-03-02T20:17:38.717Z,48.00
2023-03-02T20:22:45.886Z,47.80
2023-03-02T20:27:56.124Z,47.50
2023-03-02T20:33:02.927Z,47.80
2023-03-02T20:38:14.322Z,48.20
2023-03-02T20:43:20.910Z,48.10
2023-03-02T20:48:27.416Z,48.40
2023-03-02T20:53:34.727Z,48.80
2023-03-02T20:58:42.417Z,49.30
2023-03-02T21:03:48.428Z,49.00
2023-03-02T21:08:55.478Z,48.90
2023-03-02T21:14:02.368Z,48.90
2023-03-02T21:19:12.775Z,49.90
2023-03-02T21:24:18.225Z,49.80
2023-03-02T21:29:27.569Z,49.50
2023-03-02T21:34:35.299Z,49.80
2023-03-02T21:39:42.468Z,49.80
2023-03-02T21:44:47.767Z,49.70
2023-03-02T21:49:52.309Z,50.50
2023-03-02T21:54:56.738Z,50.90
2023-03-02T22:00:01.159Z,50.70
2023-03-02T22:05:05.817Z,51.60
2023-03-02T22:10:24.397Z,52.00
2023-03-02T22:15:28.488Z,51.80
2023-03-02T22:20:32.960Z,51.70
2023-03-02T22:25:37.208Z,51.50
2023-03-02T22:30:41.633Z,51.80
2023-03-02T22:35:47.096Z,51.50
2023-03-02T22:40:52.448Z,51.20
2023-03-02T22:46:05.423Z,51.60
2023-03-02T22:51:18.407Z,50.60
2023-03-02T22:56:36.103Z,50.90
2023-03-02T23:01:45.045Z,50.90
2023-03-02T23:07:03.404Z,50.50
2023-03-02T23:12:20.329Z,50.80
2023-03-02T23:17:41.910Z,51.30
2023-03-02T23:22:46.097Z,51.00
2023-03-02T23:27:49.984Z,50.10
2023-03-02T23:32:54.264Z,50.00
2023-03-02T23:37:59.113Z,50.10
2023-03-02T23:43:03.144Z,49.30
2023-03-02T23:48:07.167Z,49.10
2023-03-02T23:53:11.719Z,48.90
2023-03-02T23:58:16.975Z,48.90
